ITY1987 LGAV-LROP
Flight info
| Callsign | ITY1987 |
|---|---|
| Flight time | N/A |
| Altitude | 24000 |
| Route | ROPOX1N ROPOX M749 SKP L617 TSL M987 ATFIR/N0453F380 N133 USALI Q24 SOMOV/N0451F390 DCT SORDU SORDU1X |
| Aircraft | A20N/M-SDE2E3FGHIRWXY/LB1 |
Departure
| Time | 2026-05-05 15:02 |
|---|---|
| Airport | Athens Eleftherios Venizelos International Airport (LGAV) |
Arrival
| Time | N/A |
|---|---|
| Airport | Bucharest Henri Coandă International Airport (LROP) |
| Time | Latitude | Longitude | Altitude | Speed | Heading |
|---|---|---|---|---|---|
| 2026-05-05 14:24 | 37.93749 | 23.94981 | 285 ft | 0 kts | 310° |
| 2026-05-05 14:35 | 37.93748 | 23.94982 | 282 ft | 1 kts | 310° |
| 2026-05-05 14:36 | 37.93740 | 23.94994 | 282 ft | 3 kts | 310° |
| 2026-05-05 14:36 | 37.93728 | 23.95012 | 282 ft | 3 kts | 313° |
| 2026-05-05 14:36 | 37.93715 | 23.95027 | 283 ft | 2 kts | 327° |
| 2026-05-05 14:36 | 37.93700 | 23.95037 | 282 ft | 3 kts | 341° |
| 2026-05-05 14:37 | 37.93682 | 23.95039 | 287 ft | 2 kts | 33° |
| 2026-05-05 14:37 | 37.93680 | 23.95038 | 287 ft | 0 kts | 38° |
| 2026-05-05 14:47 | 37.93681 | 23.95039 | 286 ft | 1 kts | 38° |
| 2026-05-05 14:47 | 37.93693 | 23.95055 | 284 ft | 4 kts | 50° |
| 2026-05-05 14:47 | 37.93711 | 23.95094 | 281 ft | 6 kts | 80° |
| 2026-05-05 14:47 | 37.93695 | 23.95147 | 284 ft | 7 kts | 125° |
| 2026-05-05 14:48 | 37.93660 | 23.95209 | 281 ft | 10 kts | 122° |
| 2026-05-05 14:48 | 37.93667 | 23.95292 | 280 ft | 11 kts | 52° |
| 2026-05-05 14:48 | 37.93732 | 23.95357 | 283 ft | 13 kts | 37° |
| 2026-05-05 14:48 | 37.93811 | 23.95433 | 279 ft | 16 kts | 37° |
| 2026-05-05 14:49 | 37.93890 | 23.95506 | 278 ft | 10 kts | 36° |
| 2026-05-05 14:49 | 37.93953 | 23.95566 | 278 ft | 13 kts | 35° |
| 2026-05-05 14:49 | 37.93983 | 23.95593 | 277 ft | 1 kts | 35° |
| 2026-05-05 14:49 | 37.93995 | 23.95606 | 280 ft | 4 kts | 40° |
| 2026-05-05 14:50 | 37.94025 | 23.95636 | 279 ft | 7 kts | 37° |
| 2026-05-05 14:50 | 37.94071 | 23.95679 | 276 ft | 9 kts | 37° |
| 2026-05-05 14:50 | 37.94128 | 23.95735 | 276 ft | 12 kts | 37° |
| 2026-05-05 14:50 | 37.94200 | 23.95802 | 275 ft | 14 kts | 36° |
| 2026-05-05 14:51 | 37.94228 | 23.95828 | 277 ft | 0 kts | 36° |
| 2026-05-05 14:51 | 37.94229 | 23.95829 | 277 ft | 1 kts | 36° |
| 2026-05-05 14:51 | 37.94243 | 23.95843 | 275 ft | 4 kts | 37° |
| 2026-05-05 14:52 | 37.94275 | 23.95874 | 275 ft | 7 kts | 38° |
| 2026-05-05 14:52 | 37.94324 | 23.95920 | 274 ft | 10 kts | 38° |
| 2026-05-05 14:52 | 37.94386 | 23.95980 | 273 ft | 12 kts | 38° |
| 2026-05-05 14:52 | 37.94435 | 23.96026 | 273 ft | 14 kts | 37° |
| 2026-05-05 14:53 | 37.94550 | 23.96136 | 271 ft | 17 kts | 37° |
| 2026-05-05 14:53 | 37.94638 | 23.96219 | 270 ft | 14 kts | 37° |
| 2026-05-05 14:53 | 37.94691 | 23.96270 | 269 ft | 15 kts | 38° |
| 2026-05-05 14:53 | 37.94781 | 23.96355 | 269 ft | 17 kts | 36° |
| 2026-05-05 14:54 | 37.94881 | 23.96450 | 268 ft | 19 kts | 36° |
| 2026-05-05 14:54 | 37.94989 | 23.96553 | 267 ft | 20 kts | 36° |
| 2026-05-05 14:54 | 37.95098 | 23.96657 | 266 ft | 15 kts | 36° |
| 2026-05-05 14:54 | 37.95188 | 23.96743 | 264 ft | 17 kts | 36° |
| 2026-05-05 14:55 | 37.95234 | 23.96785 | 264 ft | 7 kts | 37° |
| 2026-05-05 14:55 | 37.95277 | 23.96828 | 263 ft | 9 kts | 38° |
| 2026-05-05 14:55 | 37.95292 | 23.96908 | 263 ft | 11 kts | 115° |
| 2026-05-05 14:55 | 37.95280 | 23.96932 | 263 ft | 0 kts | 124° |
| 2026-05-05 14:58 | 37.95276 | 23.96939 | 263 ft | 2 kts | 126° |
| 2026-05-05 14:58 | 37.95263 | 23.96962 | 263 ft | 4 kts | 126° |
| 2026-05-05 14:58 | 37.95239 | 23.96998 | 263 ft | 6 kts | 135° |
| 2026-05-05 14:58 | 37.95200 | 23.97018 | 264 ft | 6 kts | 184° |
| 2026-05-05 14:59 | 37.95175 | 23.97002 | 265 ft | 0 kts | 214° |
| 2026-05-05 15:01 | 37.95164 | 23.96993 | 265 ft | 17 kts | 214° |
| 2026-05-05 15:01 | 37.94853 | 23.96699 | 269 ft | 93 kts | 218° |
| 2026-05-05 15:01 | 37.94179 | 23.96059 | 275 ft | 150 kts | 214° |
| 2026-05-05 15:01 | 37.93282 | 23.95229 | 800 ft | 151 kts | 220° |
| 2026-05-05 15:02 | 37.92500 | 23.94452 | 1689 ft | 141 kts | 221° |
| 2026-05-05 15:02 | 37.91756 | 23.93685 | 2436 ft | 138 kts | 223° |
| 2026-05-05 15:02 | 37.90943 | 23.92823 | 2802 ft | 163 kts | 220° |
| 2026-05-05 15:02 | 37.90088 | 23.92036 | 3669 ft | 152 kts | 217° |
| 2026-05-05 15:03 | 37.89216 | 23.91356 | 4437 ft | 147 kts | 213° |
| 2026-05-05 15:03 | 37.88327 | 23.90757 | 5141 ft | 145 kts | 210° |
| 2026-05-05 15:03 | 37.87394 | 23.90264 | 5683 ft | 152 kts | 200° |
| 2026-05-05 15:03 | 37.86375 | 23.89963 | 6212 ft | 153 kts | 191° |
| 2026-05-05 15:04 | 37.85326 | 23.89883 | 6726 ft | 154 kts | 181° |
| 2026-05-05 15:04 | 37.84263 | 23.90027 | 7228 ft | 155 kts | 172° |
| 2026-05-05 15:04 | 37.83218 | 23.90400 | 7712 ft | 157 kts | 162° |
| 2026-05-05 15:04 | 37.82234 | 23.90982 | 8167 ft | 159 kts | 154° |
| 2026-05-05 15:05 | 37.80364 | 23.92463 | 9074 ft | 162 kts | 151° |
| 2026-05-05 15:05 | 37.79395 | 23.93177 | 9493 ft | 163 kts | 156° |
| 2026-05-05 15:05 | 37.78380 | 23.93762 | 9900 ft | 166 kts | 162° |
| 2026-05-05 15:06 | 37.77280 | 23.94212 | 10345 ft | 167 kts | 169° |
| 2026-05-05 15:06 | 37.76142 | 23.94499 | 10793 ft | 167 kts | 176° |
| 2026-05-05 15:06 | 37.75021 | 23.94615 | 11191 ft | 165 kts | 182° |
| 2026-05-05 15:06 | 37.73881 | 23.94567 | 11603 ft | 164 kts | 189° |
| 2026-05-05 15:07 | 37.72761 | 23.94352 | 12018 ft | 163 kts | 196° |
| 2026-05-05 15:07 | 37.71679 | 23.93976 | 12420 ft | 162 kts | 202° |
| 2026-05-05 15:07 | 37.70647 | 23.93447 | 12811 ft | 160 kts | 209° |
| 2026-05-05 15:07 | 37.69688 | 23.92777 | 13179 ft | 160 kts | 216° |
| 2026-05-05 15:08 | 37.68689 | 23.92139 | 13407 ft | 172 kts | 192° |
| 2026-05-05 15:08 | 37.67494 | 23.92053 | 13774 ft | 170 kts | 181° |
| 2026-05-05 15:08 | 37.66354 | 23.92176 | 14283 ft | 164 kts | 174° |
| 2026-05-05 15:08 | 37.65209 | 23.92478 | 14480 ft | 175 kts | 167° |
| 2026-05-05 15:09 | 37.64045 | 23.92973 | 14827 ft | 176 kts | 160° |
| 2026-05-05 15:09 | 37.62958 | 23.93629 | 15211 ft | 174 kts | 153° |